Grete Maersk — OYCY2 — position and weather

sailwx.info

Track history (hours):
 
Tides and Currents Weather Stations Pressure Air Temp Water Temp Dewpoint Dewpoint Depression Visibility Wind Speed Wind Dir Waves Ship Positions

Grete Maersk

Last reported at 2014-Jul-30 22:08 UTC. Time now 2014-Aug-02 04:42 UTC.
Position N 31°13' E 032°20'.

MMSI: 218824136.

Date/timePositionNaut miles runAvg speedWind from/ knotsBaromVisibWave heightAir tempDewpointWater temp
2014-Jul-30 22:08N 31°13' E 032°20'6 7.7
2014-Jul-30 21:25N 31°18' E 032°22'6 6.9
2014-Jul-30 20:33N 31°24' E 032°22'4 3.3
2014-Jul-30 19:22N 31°25' E 032°18'0 0.0
2014-Jul-30 18:19N 31°25' E 032°18'0 0.0
2014-Jul-30 17:31N 31°25' E 032°18'0 0.3
2014-Jul-30 16:30N 31°25' E 032°18'1715.9
2014-Jul-30 15:25N 31°38' E 032°05'1618.7
2014-Jul-30 14:33N 31°49' E 031°51'1918.7
2014-Jul-30 13:33N 32°01' E 031°34'1918.7
2014-Jul-30 12:33N 32°12' E 031°16'2120.4
2014-Jul-30 11:32N 32°26' E 030°57'2421.3
2014-Jul-30 10:24N 32°41' E 030°35'1821.5
2014-Jul-30 09:33N 32°52' E 030°18'2221.6
2014-Jul-30 08:33N 33°05' E 029°58'3122.0
2014-Jul-30 07:09N 33°25' E 029°29'23023.2
2014-Jul-29 21:16N 35°44' E 025°48'1623.0
2014-Jul-29 20:33N 35°53' E 025°31'2322.9
2014-Jul-29 19:34N 36°06' E 025°07'2923.1
2014-Jul-29 18:19N 36°21' E 024°38'1722.9
2014-Jul-29 17:33N 36°31' E 024°20'2422.4
2014-Jul-29 16:29N 36°49' E 024°00'2122.8
2014-Jul-29 15:33N 37°10' E 023°53'2323.0
2014-Jul-29 14:33N 37°32' E 023°45'2121.7
2014-Jul-29 13:34N 37°52' E 023°37'5 5.0
2014-Jul-29 12:33N 37°57' E 023°35'0 0.0
2014-Jul-29 11:33N 37°57' E 023°35'0 0.0
2014-Jul-29 10:33N 37°57' E 023°35'0 0.0
2014-Jul-29 09:33N 37°57' E 023°35'0 0.0
2014-Jul-29 08:33N 37°57' E 023°35'0 0.0
2014-Jul-29 07:33N 37°57' E 023°35'0 0.0
2014-Jul-29 06:33N 37°57' E 023°35'0 0.0
2014-Jul-29 05:33N 37°57' E 023°35'0 0.0
2014-Jul-29 04:33N 37°57' E 023°35'0 0.0
2014-Jul-29 03:33N 37°57' E 023°35'0 0.0
2014-Jul-29 02:33N 37°57' E 023°35'0 0.0
2014-Jul-29 01:33N 37°57' E 023°35'0 0.0
2014-Jul-29 00:33N 37°57' E 023°35'0 0.0
2014-Jul-28 23:33N 37°57' E 023°35'0 0.0
2014-Jul-28 22:33N 37°57' E 023°35'0 0.0
2014-Jul-28 21:33N 37°57' E 023°35'0 0.0
2014-Jul-28 20:33N 37°57' E 023°35'2 1.8
2014-Jul-28 19:34N 37°55' E 023°36'2 2.1
2014-Jul-28 18:33N 37°54' E 023°37'1313.2
2014-Jul-28 17:33N 37°42' E 023°45'1212.5
2014-Jul-28 16:33N 37°29' E 023°47'1414.3
2014-Jul-28 15:33N 37°16' E 023°41'1414.2
2014-Jul-28 14:33N 37°02' E 023°36'1414.1
2014-Jul-28 13:33N 36°48' E 023°33'1413.8
2014-Jul-28 12:32N 36°35' E 023°28'1313.5
2014-Jul-28 11:33N 36°23' E 023°21'1313.1
2014-Jul-28 10:33N 36°11' E 023°14'42914.2
2014-Jul-27 04:18N 36°27' E 014°22'1618.2
2014-Jul-27 03:26N 36°31' E 014°03'1618.1
2014-Jul-27 02:34N 36°36' E 013°44'1818.1
2014-Jul-27 01:34N 36°41' E 013°23'1918.7
2014-Jul-27 00:34N 36°46' E 013°00'2418.9
2014-Jul-26 23:18N 36°52' E 012°32'12918.6
2014-Jul-26 16:23N 37°32' E 009°58'1919.0
2014-Jul-26 15:23N 37°28' E 009°35'1618.7
2014-Jul-26 14:32N 37°25' E 009°15'2018.5
2014-Jul-26 13:28N 37°20' E 008°51'1718.1
2014-Jul-26 12:33N 37°16' E 008°31'27018.9
2014-Jul-25 22:15N 36°58' E 002°53'1419.4
2014-Jul-25 21:31N 36°56' E 002°35'5819.0
2014-Jul-25 18:27N 36°47' E 001°24'3918.3
2014-Jul-25 16:19N 36°42' E 000°35'1418.6
2014-Jul-25 15:33N 36°40' E 000°18'6119.0
2014-Jul-25 12:19N 36°30' W 000°58'1418.7
2014-Jul-25 11:33N 36°28' W 001°16'19619.1
2014-Jul-25 01:16N 35°59' W 005°17'12 0.5
2014-Jul-24 01:26N 35°53' W 005°30'0 0.0
2014-Jul-24 00:32N 35°53' W 005°30'85 4.7
2014-Jul-23 06:33N 36°07' W 007°14'2118.5
2014-Jul-23 05:26N 36°12' W 007°39'1618.6
2014-Jul-23 04:33N 36°16' W 007°58'1818.4
2014-Jul-23 03:33N 36°21' W 008°21'1818.2
2014-Jul-23 02:33N 36°25' W 008°42'1818.1
2014-Jul-23 01:33N 36°30' W 009°04'1817.8
2014-Jul-23 00:33N 36°38' W 009°24'1817.9
2014-Jul-22 23:33N 36°54' W 009°35'1818.5
2014-Jul-22 22:33N 37°12' W 009°38'1918.8
2014-Jul-22 21:33N 37°30' W 009°45'1918.9
2014-Jul-22 20:34N 37°49' W 009°50'1918.7
2014-Jul-22 19:33N 38°07' W 009°56'1918.8
2014-Jul-22 18:33N 38°25' W 010°02'1918.7
2014-Jul-22 17:33N 38°44' W 010°07'1918.9
2014-Jul-22 16:33N 39°02' W 010°06'1918.9
2014-Jul-22 15:33N 39°22' W 010°04'1818.6
2014-Jul-22 14:33N 39°40' W 010°04'2118.6
2014-Jul-22 13:27N 40°01' W 010°05'70718.1
2014-Jul-20 22:26N 49°36' W 000°26'  
Track history (hours):
 
Tides and Currents Weather Stations Pressure Air Temp Water Temp Dewpoint Dewpoint Depression Visibility Wind Speed Wind Dir Waves Ship Positions

Grete Maersk

Last reported at 2014-Jul-30 22:08 UTC. Time now 2014-Aug-02 04:42 UTC.
Position N 31°13' E 032°20'.

MMSI: 218824136.

Date/timePositionNaut miles runAvg speedWind from/ knotsBaromVisibWave heightAir tempDewpointWater temp
2014-Jul-30 22:08N 31°13' E 032°20'6 7.7
2014-Jul-30 21:25N 31°18' E 032°22'6 6.9
2014-Jul-30 20:33N 31°24' E 032°22'4 3.3
2014-Jul-30 19:22N 31°25' E 032°18'0 0.0
2014-Jul-30 18:19N 31°25' E 032°18'0 0.0
2014-Jul-30 17:31N 31°25' E 032°18'0 0.3
2014-Jul-30 16:30N 31°25' E 032°18'1715.9
2014-Jul-30 15:25N 31°38' E 032°05'1618.7
2014-Jul-30 14:33N 31°49' E 031°51'1918.7
2014-Jul-30 13:33N 32°01' E 031°34'1918.7
2014-Jul-30 12:33N 32°12' E 031°16'2120.4
2014-Jul-30 11:32N 32°26' E 030°57'2421.3
2014-Jul-30 10:24N 32°41' E 030°35'1821.5
2014-Jul-30 09:33N 32°52' E 030°18'2221.6
2014-Jul-30 08:33N 33°05' E 029°58'3122.0
2014-Jul-30 07:09N 33°25' E 029°29'23023.2
2014-Jul-29 21:16N 35°44' E 025°48'1623.0
2014-Jul-29 20:33N 35°53' E 025°31'2322.9
2014-Jul-29 19:34N 36°06' E 025°07'2923.1
2014-Jul-29 18:19N 36°21' E 024°38'1722.9
2014-Jul-29 17:33N 36°31' E 024°20'2422.4
2014-Jul-29 16:29N 36°49' E 024°00'2122.8
2014-Jul-29 15:33N 37°10' E 023°53'2323.0
2014-Jul-29 14:33N 37°32' E 023°45'2121.7
2014-Jul-29 13:34N 37°52' E 023°37'5 5.0
2014-Jul-29 12:33N 37°57' E 023°35'0 0.0
2014-Jul-29 11:33N 37°57' E 023°35'0 0.0
2014-Jul-29 10:33N 37°57' E 023°35'0 0.0
2014-Jul-29 09:33N 37°57' E 023°35'0 0.0
2014-Jul-29 08:33N 37°57' E 023°35'0 0.0
2014-Jul-29 07:33N 37°57' E 023°35'0 0.0
2014-Jul-29 06:33N 37°57' E 023°35'0 0.0
2014-Jul-29 05:33N 37°57' E 023°35'0 0.0
2014-Jul-29 04:33N 37°57' E 023°35'0 0.0
2014-Jul-29 03:33N 37°57' E 023°35'0 0.0
2014-Jul-29 02:33N 37°57' E 023°35'0 0.0
2014-Jul-29 01:33N 37°57' E 023°35'0 0.0
2014-Jul-29 00:33N 37°57' E 023°35'0 0.0
2014-Jul-28 23:33N 37°57' E 023°35'0 0.0
2014-Jul-28 22:33N 37°57' E 023°35'0 0.0
2014-Jul-28 21:33N 37°57' E 023°35'0 0.0
2014-Jul-28 20:33N 37°57' E 023°35'2 1.8
2014-Jul-28 19:34N 37°55' E 023°36'2 2.1
2014-Jul-28 18:33N 37°54' E 023°37'1313.2
2014-Jul-28 17:33N 37°42' E 023°45'1212.5
2014-Jul-28 16:33N 37°29' E 023°47'1414.3
2014-Jul-28 15:33N 37°16' E 023°41'1414.2
2014-Jul-28 14:33N 37°02' E 023°36'1414.1
2014-Jul-28 13:33N 36°48' E 023°33'1413.8
2014-Jul-28 12:32N 36°35' E 023°28'1313.5
2014-Jul-28 11:33N 36°23' E 023°21'1313.1
2014-Jul-28 10:33N 36°11' E 023°14'42914.2
2014-Jul-27 04:18N 36°27' E 014°22'1618.2
2014-Jul-27 03:26N 36°31' E 014°03'1618.1
2014-Jul-27 02:34N 36°36' E 013°44'1818.1
2014-Jul-27 01:34N 36°41' E 013°23'1918.7
2014-Jul-27 00:34N 36°46' E 013°00'2418.9
2014-Jul-26 23:18N 36°52' E 012°32'12918.6
2014-Jul-26 16:23N 37°32' E 009°58'1919.0
2014-Jul-26 15:23N 37°28' E 009°35'1618.7
2014-Jul-26 14:32N 37°25' E 009°15'2018.5
2014-Jul-26 13:28N 37°20' E 008°51'1718.1
2014-Jul-26 12:33N 37°16' E 008°31'27018.9
2014-Jul-25 22:15N 36°58' E 002°53'1419.4
2014-Jul-25 21:31N 36°56' E 002°35'5819.0
2014-Jul-25 18:27N 36°47' E 001°24'3918.3
2014-Jul-25 16:19N 36°42' E 000°35'1418.6
2014-Jul-25 15:33N 36°40' E 000°18'6119.0
2014-Jul-25 12:19N 36°30' W 000°58'1418.7
2014-Jul-25 11:33N 36°28' W 001°16'19619.1
2014-Jul-25 01:16N 35°59' W 005°17'12 0.5
2014-Jul-24 01:26N 35°53' W 005°30'0 0.0
2014-Jul-24 00:32N 35°53' W 005°30'85 4.7
2014-Jul-23 06:33N 36°07' W 007°14'2118.5
2014-Jul-23 05:26N 36°12' W 007°39'1618.6
2014-Jul-23 04:33N 36°16' W 007°58'1818.4
2014-Jul-23 03:33N 36°21' W 008°21'1818.2
2014-Jul-23 02:33N 36°25' W 008°42'1818.1
2014-Jul-23 01:33N 36°30' W 009°04'1817.8
2014-Jul-23 00:33N 36°38' W 009°24'1817.9
2014-Jul-22 23:33N 36°54' W 009°35'1818.5
2014-Jul-22 22:33N 37°12' W 009°38'1918.8
2014-Jul-22 21:33N 37°30' W 009°45'1918.9
2014-Jul-22 20:34N 37°49' W 009°50'1918.7
2014-Jul-22 19:33N 38°07' W 009°56'1918.8
2014-Jul-22 18:33N 38°25' W 010°02'1918.7
2014-Jul-22 17:33N 38°44' W 010°07'1918.9
2014-Jul-22 16:33N 39°02' W 010°06'1918.9
2014-Jul-22 15:33N 39°22' W 010°04'1818.6
2014-Jul-22 14:33N 39°40' W 010°04'2118.6
2014-Jul-22 13:27N 40°01' W 010°05'70718.1
2014-Jul-20 22:26N 49°36' W 000°26'  

Dump ship's entire track history